Time;durP1;ratioP1;P1;durP2;ratioP2;P2;SDS_P1;SDS_P2;PMS_P1;PMS_P2;Temp;Humidity;BMP_temperature;BMP_pressure;BME280_temperature;BME280_humidity;BME280_pressure;Samples;Min_cycle;Max_cycle;Signal;HPM_P1;HPM_P2
2023/09/02 00:01:24;;;;;;;6.88;2.80;;;;;;;;;;5005224;28;20029;-71
2023/09/02 00:03:50;;;;;;;7.90;3.00;;;;;;;;;;5001838;28;20035;-70
2023/09/02 00:06:15;;;;;;;10.27;3.08;;;;;;;;;;4995746;28;20034;-70
2023/09/02 00:08:41;;;;;;;8.98;3.25;;;;;;;;;;4997496;28;20496;-70
2023/09/02 00:11:07;;;;;;;9.63;2.65;;;;;;;;;;5007200;28;20029;-70
2023/09/02 00:13:32;;;;;;;4.95;2.92;;;;;;;;;;5005979;28;20135;-70
2023/09/02 00:15:58;;;;;;;6.68;3.05;;;;;;;;;;5004208;28;20022;-70
2023/09/02 00:18:24;;;;;;;6.78;2.63;;;;;;;;;;5000667;28;20045;-70
2023/09/02 00:20:49;;;;;;;4.18;2.38;;;;;;;;;;5016891;28;20064;-70
2023/09/02 00:23:16;;;;;;;6.88;2.80;;;;;;;;;;5007375;28;20131;-70
2023/09/02 00:25:42;;;;;;;9.70;2.70;;;;;;;;;;5009407;28;20022;-71
2023/09/02 00:28:08;;;;;;;5.90;2.70;;;;;;;;;;5007064;28;20041;-70
2023/09/02 00:30:33;;;;;;;5.07;2.80;;;;;;;;;;5007916;28;20379;-71
2023/09/02 00:32:59;;;;;;;10.68;3.05;;;;;;;;;;5006947;28;20510;-70
2023/09/02 00:35:25;;;;;;;5.90;2.72;;;;;;;;;;4993187;28;20029;-71
2023/09/02 00:37:51;;;;;;;8.27;3.08;;;;;;;;;;5022262;28;20045;-71
2023/09/02 00:40:19;;;;;;;8.20;3.33;;;;;;;;;;5008789;28;20545;-71
2023/09/02 00:42:47;;;;;;;10.25;3.35;;;;;;;;;;5025360;28;20033;-70
2023/09/02 00:45:13;;;;;;;18.73;3.90;;;;;;;;;;5007961;28;20033;-70
2023/09/02 00:47:39;;;;;;;8.45;3.42;;;;;;;;;;5012427;28;20037;-70
2023/09/02 00:50:05;;;;;;;8.50;3.10;;;;;;;;;;5000623;28;20052;-70
2023/09/02 00:52:34;;;;;;;15.15;3.58;;;;;;;;;;5006571;28;20487;-70
2023/09/02 00:55:01;;;;;;;7.53;3.28;;;;;;;;;;5024017;28;20403;-70
2023/09/02 00:57:27;;;;;;;9.10;3.47;;;;;;;;;;5009897;28;20502;-71
2023/09/02 00:59:53;;;;;;;9.05;3.50;;;;;;;;;;5012043;28;20025;-69
2023/09/02 01:02:21;;;;;;;10.40;3.45;;;;;;;;;;5017649;28;20065;-70
2023/09/02 01:04:47;;;;;;;4.68;2.90;;;;;;;;;;4995849;28;20117;-71
2023/09/02 01:07:14;;;;;;;8.50;2.95;;;;;;;;;;5021103;28;20038;-70
2023/09/02 01:09:41;;;;;;;7.25;2.88;;;;;;;;;;5001588;28;20121;-71
2023/09/02 01:12:07;;;;;;;6.07;3.10;;;;;;;;;;5008356;28;20037;-71
2023/09/02 01:14:33;;;;;;;5.60;2.97;;;;;;;;;;5012235;28;20033;-70
2023/09/02 01:16:59;;;;;;;12.35;2.97;;;;;;;;;;5011521;28;20121;-71
2023/09/02 01:19:24;;;;;;;5.45;2.65;;;;;;;;;;4993331;28;20749;-70
2023/09/02 01:22:20;;;;;;;7.15;2.45;;;;;;;;;;4999876;28;20062;-71
2023/09/02 01:24:54;;;;;;;6.35;2.55;;;;;;;;;;5018399;28;20036;-71
2023/09/02 01:27:49;;;;;;;5.55;2.58;;;;;;;;;;5006936;28;20037;-71
2023/09/02 01:30:26;;;;;;;8.10;3.38;;;;;;;;;;5006411;28;20046;-70
2023/09/02 01:32:54;;;;;;;9.27;2.60;;;;;;;;;;5009100;28;20045;-70
2023/09/02 01:35:29;;;;;;;5.85;3.13;;;;;;;;;;5007496;28;20046;-70
2023/09/02 01:37:57;;;;;;;6.13;3.08;;;;;;;;;;5009767;28;20210;-70
2023/09/02 01:40:25;;;;;;;6.25;2.80;;;;;;;;;;5005757;28;20447;-71
2023/09/02 01:42:53;;;;;;;4.60;2.33;;;;;;;;;;5015151;28;20040;-71
2023/09/02 01:45:20;;;;;;;5.28;3.08;;;;;;;;;;5022530;28;20495;-71
2023/09/02 01:47:47;;;;;;;9.52;3.33;;;;;;;;;;5002171;28;20408;-70
2023/09/02 01:50:20;;;;;;;7.72;3.25;;;;;;;;;;5005151;28;20026;-71
2023/09/02 01:52:47;;;;;;;13.63;3.03;;;;;;;;;;5005682;28;20073;-71
2023/09/02 01:55:15;;;;;;;5.43;2.67;;;;;;;;;;5003040;28;20038;-71
2023/09/02 01:57:41;;;;;;;5.00;2.67;;;;;;;;;;5003398;28;20072;-70
2023/09/02 02:00:08;;;;;;;7.88;3.03;;;;;;;;;;4999348;28;20030;-71
2023/09/02 02:02:38;;;;;;;6.63;2.67;;;;;;;;;;5010509;28;20091;-69
2023/09/02 02:05:06;;;;;;;6.57;2.50;;;;;;;;;;5010614;28;20046;-71
2023/09/02 02:07:37;;;;;;;9.18;3.05;;;;;;;;;;5006469;28;20027;-70
2023/09/02 02:10:06;;;;;;;4.80;2.40;;;;;;;;;;5005837;28;20069;-70
2023/09/02 02:12:32;;;;;;;7.55;2.40;;;;;;;;;;5028425;28;20032;-70
2023/09/02 02:14:58;;;;;;;5.75;2.42;;;;;;;;;;5002931;28;20056;-70
2023/09/02 02:17:25;;;;;;;5.25;2.10;;;;;;;;;;5024181;28;20563;-70
2023/09/02 02:19:51;;;;;;;6.40;2.80;;;;;;;;;;5006270;28;20121;-71
2023/09/02 02:22:17;;;;;;;7.40;2.50;;;;;;;;;;5006318;28;20073;-71
2023/09/02 02:24:43;;;;;;;7.00;2.78;;;;;;;;;;5007113;28;20034;-70
2023/09/02 02:27:09;;;;;;;5.80;2.30;;;;;;;;;;5004029;28;20416;-71
2023/09/02 02:29:35;;;;;;;5.63;2.10;;;;;;;;;;5002802;28;20073;-70
2023/09/02 02:32:00;;;;;;;5.20;2.53;;;;;;;;;;5012497;28;20036;-69
2023/09/02 02:34:26;;;;;;;6.70;2.67;;;;;;;;;;4993413;28;20035;-71
2023/09/02 02:36:52;;;;;;;13.77;2.97;;;;;;;;;;5009970;28;20032;-70
2023/09/02 02:39:18;;;;;;;7.10;2.42;;;;;;;;;;5007126;28;20072;-70
2023/09/02 02:41:43;;;;;;;12.55;3.30;;;;;;;;;;5015385;28;20021;-70
2023/09/02 02:44:09;;;;;;;7.95;2.75;;;;;;;;;;5011047;28;20045;-70
2023/09/02 02:46:35;;;;;;;8.75;2.40;;;;;;;;;;5009696;28;20033;-70
2023/09/02 02:49:00;;;;;;;6.63;2.78;;;;;;;;;;5021919;28;20057;-70
2023/09/02 02:51:27;;;;;;;10.50;3.40;;;;;;;;;;5011785;28;20096;-71
2023/09/02 02:53:53;;;;;;;9.55;3.05;;;;;;;;;;5018872;28;20404;-69
2023/09/02 02:56:19;;;;;;;6.80;3.17;;;;;;;;;;5012944;28;20034;-71
2023/09/02 02:58:45;;;;;;;8.35;3.33;;;;;;;;;;5012188;28;20034;-70
2023/09/02 03:01:12;;;;;;;8.63;2.90;;;;;;;;;;5007246;28;20064;-70
2023/09/02 03:03:40;;;;;;;14.88;3.70;;;;;;;;;;5009422;28;20088;-71
2023/09/02 03:06:07;;;;;;;10.18;3.42;;;;;;;;;;5008604;28;20022;-70
2023/09/02 03:08:34;;;;;;;9.73;3.00;;;;;;;;;;4993362;28;20030;-70
2023/09/02 03:11:02;;;;;;;7.50;2.92;;;;;;;;;;5004637;28;20057;-70
2023/09/02 03:13:33;;;;;;;6.43;2.35;;;;;;;;;;5007144;28;20045;-70
2023/09/02 03:16:03;;;;;;;11.43;3.20;;;;;;;;;;5022488;28;20112;-71
2023/09/02 03:18:29;;;;;;;10.38;3.13;;;;;;;;;;5009744;28;20487;-70
2023/09/02 03:21:06;;;;;;;7.55;2.83;;;;;;;;;;5007502;28;20161;-69
2023/09/02 03:23:35;;;;;;;8.73;3.00;;;;;;;;;;5020858;28;20399;-71
2023/09/02 03:26:12;;;;;;;9.60;2.97;;;;;;;;;;5014982;28;20022;-71
2023/09/02 03:28:40;;;;;;;7.38;2.80;;;;;;;;;;5018317;28;20138;-71
2023/09/02 03:31:10;;;;;;;9.02;2.72;;;;;;;;;;5019215;28;20089;-71
2023/09/02 03:33:38;;;;;;;8.35;3.20;;;;;;;;;;5013898;28;20026;-69
2023/09/02 03:36:05;;;;;;;11.30;3.40;;;;;;;;;;5020185;28;20029;-70
2023/09/02 03:38:31;;;;;;;10.50;3.20;;;;;;;;;;5023028;28;20029;-70
2023/09/02 03:40:57;;;;;;;10.73;3.47;;;;;;;;;;5018350;28;20038;-70
2023/09/02 03:43:23;;;;;;;13.93;3.58;;;;;;;;;;5027320;28;20129;-70
2023/09/02 03:45:51;;;;;;;8.68;3.30;;;;;;;;;;5039495;28;20498;-71
2023/09/02 03:48:20;;;;;;;7.00;3.30;;;;;;;;;;5041389;28;20037;-71
2023/09/02 03:51:11;;;;;;;13.13;3.10;;;;;;;;;;5009547;28;20026;-70
2023/09/02 03:53:39;;;;;;;9.32;2.85;;;;;;;;;;5021363;28;20030;-70
2023/09/02 03:56:05;;;;;;;6.95;3.25;;;;;;;;;;5019594;28;20021;-69
2023/09/02 03:58:34;;;;;;;8.57;3.50;;;;;;;;;;5022331;28;20029;-70
2023/09/02 04:01:00;;;;;;;13.05;2.97;;;;;;;;;;5020996;28;20029;-70
2023/09/02 04:03:28;;;;;;;6.22;2.78;;;;;;;;;;5011798;28;20034;-71
2023/09/02 04:05:54;;;;;;;10.52;2.95;;;;;;;;;;4995219;28;20368;-70
2023/09/02 04:08:23;;;;;;;5.75;2.60;;;;;;;;;;5023640;28;20037;-70
2023/09/02 04:10:55;;;;;;;12.90;3.50;;;;;;;;;;5028891;28;20025;-70
2023/09/02 04:13:26;;;;;;;6.07;3.05;;;;;;;;;;5005023;28;20042;-71
2023/09/02 04:15:55;;;;;;;9.98;3.40;;;;;;;;;;5020476;28;20037;-70
2023/09/02 04:18:22;;;;;;;9.77;3.30;;;;;;;;;;5017800;28;20204;-71
2023/09/02 04:20:48;;;;;;;6.82;3.00;;;;;;;;;;5017553;28;20061;-70
2023/09/02 04:23:14;;;;;;;12.88;3.47;;;;;;;;;;5017281;28;20076;-70
2023/09/02 04:25:45;;;;;;;11.80;3.22;;;;;;;;;;5016240;28;20041;-71
2023/09/02 04:28:12;;;;;;;6.47;3.33;;;;;;;;;;5023792;28;20038;-71
2023/09/02 04:30:37;;;;;;;13.15;3.83;;;;;;;;;;5021540;28;20021;-70
2023/09/02 04:33:03;;;;;;;8.57;3.35;;;;;;;;;;5020660;28;20116;-70
2023/09/02 04:35:38;;;;;;;9.77;3.70;;;;;;;;;;5019895;28;20400;-70
2023/09/02 04:38:05;;;;;;;14.90;4.30;;;;;;;;;;5019145;28;20480;-70
2023/09/02 04:40:36;;;;;;;6.43;3.80;;;;;;;;;;5020266;28;20052;-71
2023/09/02 04:43:03;;;;;;;10.30;4.90;;;;;;;;;;5028841;28;20097;-71
2023/09/02 04:45:37;;;;;;;14.80;6.20;;;;;;;;;;5010915;28;20032;-71
2023/09/02 04:48:08;;;;;;;19.25;8.02;;;;;;;;;;4999567;28;20508;-71
2023/09/02 04:50:35;;;;;;;17.15;8.48;;;;;;;;;;5022113;28;20496;-71
2023/09/02 04:53:03;;;;;;;15.65;6.97;;;;;;;;;;5023215;28;20104;-70
2023/09/02 04:55:33;;;;;;;15.25;6.75;;;;;;;;;;5015345;28;20033;-70
2023/09/02 04:58:00;;;;;;;10.43;5.20;;;;;;;;;;5010083;28;20022;-71
2023/09/02 05:00:28;;;;;;;7.80;4.78;;;;;;;;;;5019792;28;20022;-71
2023/09/02 05:02:55;;;;;;;15.50;4.20;;;;;;;;;;5015461;28;20444;-71
2023/09/02 05:05:23;;;;;;;9.82;4.78;;;;;;;;;;5033248;28;20422;-70
2023/09/02 05:07:49;;;;;;;10.18;4.10;;;;;;;;;;5013048;28;20037;-70
2023/09/02 05:10:16;;;;;;;8.55;4.35;;;;;;;;;;5019752;28;20025;-70
2023/09/02 05:12:42;;;;;;;9.05;4.05;;;;;;;;;;5020636;28;20116;-71
2023/09/02 05:15:09;;;;;;;10.77;4.55;;;;;;;;;;5017772;28;20026;-70
2023/09/02 05:17:36;;;;;;;10.88;4.25;;;;;;;;;;5006436;28;20041;-71
2023/09/02 05:20:04;;;;;;;7.85;3.90;;;;;;;;;;5023137;28;20025;-70
2023/09/02 05:22:30;;;;;;;8.82;4.07;;;;;;;;;;5005573;28;20068;-70
2023/09/02 05:24:56;;;;;;;6.07;3.60;;;;;;;;;;5016313;28;20484;-70
2023/09/02 05:27:22;;;;;;;9.00;3.90;;;;;;;;;;5019499;28;20036;-70
2023/09/02 05:29:48;;;;;;;9.48;4.03;;;;;;;;;;5014624;28;20404;-71
2023/09/02 05:32:16;;;;;;;11.35;3.78;;;;;;;;;;5023137;28;20029;-71
2023/09/02 05:34:42;;;;;;;11.65;5.00;;;;;;;;;;5016223;28;20030;-71
2023/09/02 05:37:08;;;;;;;12.57;4.93;;;;;;;;;;5024130;28;20487;-71
2023/09/02 05:39:33;;;;;;;7.97;4.15;;;;;;;;;;5021375;28;20029;-69
2023/09/02 05:41:59;;;;;;;11.10;4.53;;;;;;;;;;5015971;28;20109;-71
2023/09/02 05:44:25;;;;;;;18.40;4.32;;;;;;;;;;5017410;28;20064;-71
2023/09/02 05:46:51;;;;;;;9.10;4.05;;;;;;;;;;5013710;28;20038;-72
2023/09/02 05:49:16;;;;;;;8.48;4.00;;;;;;;;;;5014916;28;20035;-73
2023/09/02 05:51:43;;;;;;;12.57;3.85;;;;;;;;;;5018801;28;20388;-71
2023/09/02 05:54:09;;;;;;;9.65;4.10;;;;;;;;;;4993334;28;20029;-71
2023/09/02 05:56:36;;;;;;;11.35;4.07;;;;;;;;;;5012178;28;20033;-72
2023/09/02 05:59:02;;;;;;;12.35;4.50;;;;;;;;;;5023895;28;20020;-71
2023/09/02 06:01:28;;;;;;;11.95;4.18;;;;;;;;;;5024171;28;20029;-71
2023/09/02 06:03:54;;;;;;;15.80;4.50;;;;;;;;;;5013596;28;20026;-71
2023/09/02 06:06:21;;;;;;;8.02;4.25;;;;;;;;;;5021079;28;20036;-71
2023/09/02 06:08:48;;;;;;;9.13;4.63;;;;;;;;;;5020518;28;20038;-71
2023/09/02 06:11:14;;;;;;;7.20;4.00;;;;;;;;;;5027451;28;20126;-72
2023/09/02 06:13:40;;;;;;;12.98;5.00;;;;;;;;;;5021948;28;20101;-71
2023/09/02 06:16:07;;;;;;;11.82;4.72;;;;;;;;;;5023829;28;20037;-72
2023/09/02 06:18:35;;;;;;;10.38;4.40;;;;;;;;;;5010048;28;20113;-72
2023/09/02 06:21:11;;;;;;;10.20;4.88;;;;;;;;;;4992743;28;20038;-71
2023/09/02 06:23:37;;;;;;;13.65;4.70;;;;;;;;;;4976153;28;20061;-72
2023/09/02 06:26:03;;;;;;;9.88;4.18;;;;;;;;;;4993104;28;20441;-71
2023/09/02 06:28:29;;;;;;;10.75;4.30;;;;;;;;;;5020272;28;20034;-71
2023/09/02 06:30:56;;;;;;;12.48;4.50;;;;;;;;;;5011968;28;20093;-72
2023/09/02 06:33:24;;;;;;;14.98;5.10;;;;;;;;;;5027053;28;20042;-71
2023/09/02 06:35:50;;;;;;;14.80;4.55;;;;;;;;;;5014049;28;20033;-70
2023/09/02 06:38:17;;;;;;;11.07;3.72;;;;;;;;;;5020186;28;20034;-72
2023/09/02 06:40:42;;;;;;;15.40;4.53;;;;;;;;;;5022764;28;20088;-72
2023/09/02 06:43:09;;;;;;;10.50;4.55;;;;;;;;;;5018226;28;20122;-72
2023/09/02 06:45:34;;;;;;;7.95;4.05;;;;;;;;;;5020184;28;20412;-72
2023/09/02 06:48:00;;;;;;;9.93;4.53;;;;;;;;;;5020444;28;20129;-71
2023/09/02 06:50:28;;;;;;;10.27;3.80;;;;;;;;;;5028211;28;20026;-71
2023/09/02 06:52:54;;;;;;;8.18;3.65;;;;;;;;;;5034442;28;20029;-73
2023/09/02 06:55:21;;;;;;;12.80;3.45;;;;;;;;;;5018298;28;20050;-71
2023/09/02 06:57:47;;;;;;;12.23;3.78;;;;;;;;;;5012923;28;20557;-70
2023/09/02 07:00:13;;;;;;;17.52;4.28;;;;;;;;;;5017422;28;20072;-70
2023/09/02 07:02:40;;;;;;;13.10;3.28;;;;;;;;;;5023437;28;20034;-71
2023/09/02 07:05:06;;;;;;;12.27;3.33;;;;;;;;;;5032528;28;20021;-71
2023/09/02 07:07:32;;;;;;;11.00;3.78;;;;;;;;;;5034109;28;20065;-72
2023/09/02 07:09:58;;;;;;;8.95;2.85;;;;;;;;;;5035694;28;20052;-72
2023/09/02 07:12:24;;;;;;;5.00;3.00;;;;;;;;;;5035822;28;20037;-72
2023/09/02 07:14:50;;;;;;;9.27;3.20;;;;;;;;;;5031146;28;20092;-70
2023/09/02 07:17:16;;;;;;;9.13;3.55;;;;;;;;;;5035338;28;20033;-72
2023/09/02 07:19:42;;;;;;;8.85;3.63;;;;;;;;;;5040204;28;20026;-72
2023/09/02 07:22:08;;;;;;;9.23;3.03;;;;;;;;;;5041472;28;20073;-73
2023/09/02 07:24:34;;;;;;;10.50;3.10;;;;;;;;;;5041473;28;20053;-71
2023/09/02 07:27:00;;;;;;;15.32;4.25;;;;;;;;;;5038171;28;20036;-72
2023/09/02 07:29:28;;;;;;;6.47;2.47;;;;;;;;;;5018808;28;20022;-71
2023/09/02 07:31:55;;;;;;;8.40;3.53;;;;;;;;;;5016430;28;20042;-72
2023/09/02 07:34:21;;;;;;;8.45;3.30;;;;;;;;;;5000581;28;20046;-71
2023/09/02 07:36:47;;;;;;;9.90;3.05;;;;;;;;;;5008916;28;20045;-71
2023/09/02 07:39:16;;;;;;;9.45;3.03;;;;;;;;;;5015985;28;20029;-71
2023/09/02 07:41:42;;;;;;;8.13;3.08;;;;;;;;;;5022689;28;20045;-72
2023/09/02 07:44:09;;;;;;;8.45;3.60;;;;;;;;;;5018590;28;20021;-73
2023/09/02 07:46:35;;;;;;;7.05;3.13;;;;;;;;;;5015013;28;20077;-71
2023/09/02 07:49:00;;;;;;;5.72;3.13;;;;;;;;;;5014489;28;20103;-71
2023/09/02 07:51:26;;;;;;;8.45;3.47;;;;;;;;;;5014936;28;20076;-70
2023/09/02 07:53:52;;;;;;;7.30;2.88;;;;;;;;;;5015747;28;20439;-71
2023/09/02 07:56:18;;;;;;;8.43;3.65;;;;;;;;;;5015624;28;20038;-70
2023/09/02 07:58:46;;;;;;;6.95;3.17;;;;;;;;;;5014194;28;20057;-70
2023/09/02 08:01:13;;;;;;;4.88;3.00;;;;;;;;;;5014122;28;20037;-69
2023/09/02 08:03:38;;;;;;;8.45;3.70;;;;;;;;;;5021660;28;20025;-71
2023/09/02 08:06:06;;;;;;;7.22;3.03;;;;;;;;;;5022495;28;20079;-69
2023/09/02 08:08:32;;;;;;;9.77;3.50;;;;;;;;;;5022078;28;20049;-71
2023/09/02 08:11:05;;;;;;;8.75;3.80;;;;;;;;;;5023640;28;20459;-70
2023/09/02 08:13:32;;;;;;;8.07;3.78;;;;;;;;;;5027964;28;20042;-67
2023/09/02 08:15:59;;;;;;;7.43;4.32;;;;;;;;;;5038504;28;20017;-73
2023/09/02 08:18:25;;;;;;;9.48;4.22;;;;;;;;;;5039903;28;20021;-73
2023/09/02 08:20:51;;;;;;;10.05;4.68;;;;;;;;;;5040838;28;20036;-73
2023/09/02 08:23:17;;;;;;;9.60;4.50;;;;;;;;;;5033746;28;20045;-71
2023/09/02 08:25:44;;;;;;;8.10;4.20;;;;;;;;;;5016828;28;20057;-71
2023/09/02 08:28:10;;;;;;;10.70;4.47;;;;;;;;;;5025655;28;20063;-69
2023/09/02 08:30:40;;;;;;;8.35;4.57;;;;;;;;;;5020885;28;20021;-73
2023/09/02 08:33:06;;;;;;;11.38;4.30;;;;;;;;;;5022813;28;20040;-69
2023/09/02 08:35:36;;;;;;;10.63;4.40;;;;;;;;;;5027534;28;20026;-71
2023/09/02 08:38:04;;;;;;;12.10;6.80;;;;;;;;;;5054894;28;20044;-72
2023/09/02 08:40:30;;;;;;;14.57;9.77;;;;;;;;;;5040074;28;20033;-71
2023/09/02 08:43:01;;;;;;;9.98;4.95;;;;;;;;;;5039603;28;20056;-72
2023/09/02 08:45:29;;;;;;;5.57;4.45;;;;;;;;;;5038606;28;20048;-73
2023/09/02 08:48:00;;;;;;;8.38;4.70;;;;;;;;;;5040384;28;20113;-72
2023/09/02 08:50:28;;;;;;;10.23;5.45;;;;;;;;;;5041027;28;20034;-73
2023/09/02 08:52:55;;;;;;;8.38;5.40;;;;;;;;;;5040275;28;20029;-70
2023/09/02 08:55:22;;;;;;;10.20;5.80;;;;;;;;;;5039795;28;20290;-70
2023/09/02 08:57:48;;;;;;;11.90;6.45;;;;;;;;;;5038931;28;20116;-71
2023/09/02 09:00:14;;;;;;;10.70;5.40;;;;;;;;;;5039258;28;20105;-72
2023/09/02 09:02:41;;;;;;;13.77;6.63;;;;;;;;;;5039939;28;20238;-71
2023/09/02 09:05:08;;;;;;;15.93;8.48;;;;;;;;;;5019629;28;20049;-72
2023/09/02 09:07:39;;;;;;;11.25;7.57;;;;;;;;;;5017444;28;20033;-71
2023/09/02 09:10:10;;;;;;;11.23;6.47;;;;;;;;;;5017675;28;20041;-72
2023/09/02 09:12:36;;;;;;;11.57;6.45;;;;;;;;;;5017125;28;20072;-72
2023/09/02 09:15:03;;;;;;;19.45;10.32;;;;;;;;;;5017637;28;20438;-71
2023/09/02 09:17:30;;;;;;;15.95;8.75;;;;;;;;;;5016889;28;20061;-72
2023/09/02 09:19:57;;;;;;;24.95;12.27;;;;;;;;;;5018953;28;20030;-73
2023/09/02 09:22:24;;;;;;;9.68;6.82;;;;;;;;;;5017545;28;20053;-73
2023/09/02 09:24:49;;;;;;;17.08;8.20;;;;;;;;;;5016624;28;20028;-72
2023/09/02 09:27:17;;;;;;;15.55;7.57;;;;;;;;;;5018271;28;20111;-73
2023/09/02 09:29:43;;;;;;;15.13;8.32;;;;;;;;;;5017909;28;20036;-74
2023/09/02 09:32:14;;;;;;;14.27;9.20;;;;;;;;;;5018356;28;20054;-71
2023/09/02 09:34:44;;;;;;;12.27;7.13;;;;;;;;;;5018070;28;20088;-73
2023/09/02 09:37:11;;;;;;;11.20;7.53;;;;;;;;;;5017975;28;20133;-72
2023/09/02 09:39:46;;;;;;;10.68;7.25;;;;;;;;;;5017027;28;20067;-74
2023/09/02 09:42:17;;;;;;;15.15;10.50;;;;;;;;;;5018493;28;20511;-73
2023/09/02 09:45:01;;;;;;;12.30;7.25;;;;;;;;;;5004608;28;20177;-72
2023/09/02 09:47:27;;;;;;;12.63;7.60;;;;;;;;;;4995827;28;20140;-72
2023/09/02 09:49:57;;;;;;;12.43;8.80;;;;;;;;;;5012853;28;20026;-73
2023/09/02 09:52:25;;;;;;;12.57;7.40;;;;;;;;;;4992939;28;20045;-71
2023/09/02 09:54:52;;;;;;;9.20;6.97;;;;;;;;;;4992309;28;20057;-72
2023/09/02 09:57:30;;;;;;;11.07;7.90;;;;;;;;;;4992011;28;20120;-72
2023/09/02 09:59:57;;;;;;;15.50;7.35;;;;;;;;;;4992002;28;20046;-72
2023/09/02 10:02:24;;;;;;;11.77;8.48;;;;;;;;;;4991641;28;20022;-72
2023/09/02 10:04:54;;;;;;;8.48;7.03;;;;;;;;;;4992022;28;20052;-73
2023/09/02 10:07:30;;;;;;;11.60;7.28;;;;;;;;;;4991809;28;20081;-71
2023/09/02 10:09:59;;;;;;;10.80;7.90;;;;;;;;;;4992066;28;20050;-75
2023/09/02 10:12:25;;;;;;;9.65;7.20;;;;;;;;;;4992169;28;20033;-73
2023/09/02 10:14:51;;;;;;;10.45;7.50;;;;;;;;;;4991159;28;20439;-72
2023/09/02 10:17:17;;;;;;;10.15;7.75;;;;;;;;;;4991975;28;20101;-72
2023/09/02 10:19:44;;;;;;;10.93;7.47;;;;;;;;;;4992601;28;20085;-73
2023/09/02 10:22:19;;;;;;;10.98;7.80;;;;;;;;;;4992113;28;20022;-72
2023/09/02 10:25:13;;;;;;;16.60;8.30;;;;;;;;;;4992503;28;20484;-73
2023/09/02 10:27:44;;;;;;;11.52;8.27;;;;;;;;;;4991372;28;20036;-72
2023/09/02 10:30:31;;;;;;;9.60;7.55;;;;;;;;;;4992183;28;20038;-73
2023/09/02 10:33:19;;;;;;;9.52;7.78;;;;;;;;;;4992213;28;20096;-72
2023/09/02 10:35:50;;;;;;;12.95;7.25;;;;;;;;;;4992059;28;20034;-71
2023/09/02 10:38:20;;;;;;;12.45;7.78;;;;;;;;;;4992077;28;20026;-73
2023/09/02 10:40:56;;;;;;;11.45;7.68;;;;;;;;;;4992464;28;20364;-72
2023/09/02 10:43:24;;;;;;;10.52;7.45;;;;;;;;;;4991889;28;20065;-73
2023/09/02 10:45:50;;;;;;;10.27;7.60;;;;;;;;;;4992617;28;20034;-72
2023/09/02 10:48:18;;;;;;;12.77;7.88;;;;;;;;;;4991726;28;20046;-72
2023/09/02 10:50:44;;;;;;;9.00;6.80;;;;;;;;;;4990873;28;20037;-73
2023/09/02 10:53:10;;;;;;;11.65;8.32;;;;;;;;;;4995055;28;20037;-72
2023/09/02 10:55:59;;;;;;;10.80;7.15;;;;;;;;;;4996191;28;20030;-72
2023/09/02 10:58:26;;;;;;;10.98;7.45;;;;;;;;;;4995968;28;20031;-70
2023/09/02 11:00:52;;;;;;;11.55;7.18;;;;;;;;;;4995861;28;20058;-72
2023/09/02 11:03:44;;;;;;;9.77;7.32;;;;;;;;;;4995547;28;20061;-72
2023/09/02 11:06:12;;;;;;;14.10;9.32;;;;;;;;;;4995378;28;20062;-72
2023/09/02 11:08:56;;;;;;;9.98;6.47;;;;;;;;;;4995250;28;20031;-72
2023/09/02 11:11:22;;;;;;;11.32;7.50;;;;;;;;;;4995553;28;20038;-72
2023/09/02 11:14:06;;;;;;;9.00;6.50;;;;;;;;;;4995519;28;20451;-73
2023/09/02 11:16:33;;;;;;;13.85;6.70;;;;;;;;;;4995262;28;20042;-71
2023/09/02 11:19:08;;;;;;;10.52;6.55;;;;;;;;;;4995196;28;20022;-72
2023/09/02 11:21:40;;;;;;;8.82;6.95;;;;;;;;;;4995805;28;20117;-73
2023/09/02 11:24:22;;;;;;;10.05;6.25;;;;;;;;;;4995790;28;20102;-73
2023/09/02 11:26:59;;;;;;;8.95;6.18;;;;;;;;;;5018600;28;20395;-72
2023/09/02 11:29:29;;;;;;;16.88;12.02;;;;;;;;;;5015612;28;20041;-72
2023/09/02 11:32:01;;;;;;;14.65;8.02;;;;;;;;;;5023050;28;20042;-71
2023/09/02 11:34:28;;;;;;;9.55;5.95;;;;;;;;;;5015755;28;20121;-73
2023/09/02 11:36:56;;;;;;;11.88;8.50;;;;;;;;;;5014948;28;20479;-73
2023/09/02 11:39:49;;;;;;;13.18;10.73;;;;;;;;;;5014987;28;20057;-74
2023/09/02 11:42:16;;;;;;;11.38;8.32;;;;;;;;;;5014554;28;20528;-72
2023/09/02 11:44:50;;;;;;;7.75;5.20;;;;;;;;;;5018034;28;20279;-72
2023/09/02 11:47:16;;;;;;;8.30;4.90;;;;;;;;;;5020277;28;20038;-72
2023/09/02 11:49:42;;;;;;;6.47;5.25;;;;;;;;;;5014355;28;20497;-71
2023/09/02 11:52:09;;;;;;;8.35;4.78;;;;;;;;;;5014358;28;20056;-72
2023/09/02 11:54:39;;;;;;;6.18;4.78;;;;;;;;;;5014639;28;20036;-72
2023/09/02 11:57:05;;;;;;;5.57;4.47;;;;;;;;;;5014255;28;20038;-74
2023/09/02 11:59:30;;;;;;;8.02;4.20;;;;;;;;;;5014021;28;20037;-73
2023/09/02 12:02:09;;;;;;;6.05;4.10;;;;;;;;;;5014455;28;20079;-72
2023/09/02 12:04:36;;;;;;;5.72;4.43;;;;;;;;;;5013519;28;20040;-72
2023/09/02 12:07:02;;;;;;;5.70;3.90;;;;;;;;;;5007818;28;20447;-72
2023/09/02 12:09:29;;;;;;;4.72;3.72;;;;;;;;;;5003783;28;20111;-73
2023/09/02 12:11:55;;;;;;;7.70;4.75;;;;;;;;;;5013960;28;20032;-72
2023/09/02 12:14:21;;;;;;;6.32;4.05;;;;;;;;;;5014265;28;20037;-72
2023/09/02 12:16:46;;;;;;;5.95;3.92;;;;;;;;;;5001652;28;20392;-74
2023/09/02 12:19:12;;;;;;;4.50;3.70;;;;;;;;;;5001597;28;20132;-72
2023/09/02 12:21:38;;;;;;;5.28;3.72;;;;;;;;;;5025002;28;20506;-72
2023/09/02 12:24:04;;;;;;;5.93;3.47;;;;;;;;;;5024944;28;20033;-73
2023/09/02 12:26:29;;;;;;;5.28;3.75;;;;;;;;;;5021022;28;20022;-73
2023/09/02 12:28:56;;;;;;;7.30;4.95;;;;;;;;;;5016469;28;20042;-70
2023/09/02 12:31:22;;;;;;;9.60;5.15;;;;;;;;;;5012230;28;20104;-70
2023/09/02 12:33:50;;;;;;;5.82;3.85;;;;;;;;;;5020929;28;20030;-73
2023/09/02 12:36:16;;;;;;;5.38;3.65;;;;;;;;;;5019891;28;20498;-74
2023/09/02 12:38:51;;;;;;;7.15;4.00;;;;;;;;;;5015684;28;20030;-72
2023/09/02 12:41:17;;;;;;;4.95;3.40;;;;;;;;;;5029767;28;20037;-72
2023/09/02 12:43:43;;;;;;;6.65;3.60;;;;;;;;;;5032897;28;20627;-71
2023/09/02 12:46:09;;;;;;;5.38;3.58;;;;;;;;;;5032802;28;20029;-73
2023/09/02 12:48:35;;;;;;;7.93;3.53;;;;;;;;;;5027944;28;20029;-72
2023/09/02 12:51:00;;;;;;;6.03;3.83;;;;;;;;;;5021091;28;20033;-73
2023/09/02 12:53:26;;;;;;;7.28;3.47;;;;;;;;;;5031166;28;20353;-72
2023/09/02 12:55:55;;;;;;;4.78;3.92;;;;;;;;;;5025287;28;20065;-72
2023/09/02 12:58:20;;;;;;;6.68;3.67;;;;;;;;;;5021457;28;20030;-72
2023/09/02 13:00:46;;;;;;;5.70;3.78;;;;;;;;;;5017103;28;20033;-72
2023/09/02 13:03:12;;;;;;;4.50;3.55;;;;;;;;;;5026798;28;20049;-71
2023/09/02 13:05:38;;;;;;;6.18;4.03;;;;;;;;;;5013000;28;20038;-71
2023/09/02 13:08:04;;;;;;;4.70;3.60;;;;;;;;;;5012589;28;20435;-73
2023/09/02 13:10:30;;;;;;;6.35;3.50;;;;;;;;;;5018735;28;20030;-72
2023/09/02 13:12:57;;;;;;;5.35;3.55;;;;;;;;;;5002435;28;20171;-70
2023/09/02 13:15:25;;;;;;;8.07;3.80;;;;;;;;;;5012066;28;20045;-71
2023/09/02 13:17:51;;;;;;;5.22;3.47;;;;;;;;;;5012329;28;20026;-70
2023/09/02 13:20:17;;;;;;;5.97;3.80;;;;;;;;;;5012434;28;20057;-70
2023/09/02 13:22:45;;;;;;;6.95;3.55;;;;;;;;;;5012530;28;20069;-71
2023/09/02 13:25:12;;;;;;;7.65;2.90;;;;;;;;;;5002812;28;20041;-71
2023/09/02 13:27:37;;;;;;;5.55;3.47;;;;;;;;;;4999932;28;20037;-71
2023/09/02 13:30:04;;;;;;;4.40;3.22;;;;;;;;;;5016976;28;20026;-72
2023/09/02 13:32:31;;;;;;;5.90;3.50;;;;;;;;;;5011831;28;20018;-71
2023/09/02 13:35:14;;;;;;;5.03;3.60;;;;;;;;;;5015435;28;20041;-71
2023/09/02 13:37:42;;;;;;;7.32;4.10;;;;;;;;;;5006454;28;20037;-72
2023/09/02 13:40:34;;;;;;;4.45;3.13;;;;;;;;;;5012508;28;20045;-72
2023/09/02 13:43:05;;;;;;;6.55;3.40;;;;;;;;;;4999326;28;20037;-72
2023/09/02 13:45:35;;;;;;;5.70;3.40;;;;;;;;;;5004192;28;20404;-71
2023/09/02 13:48:01;;;;;;;3.92;2.97;;;;;;;;;;4997119;28;20512;-72
2023/09/02 13:50:27;;;;;;;6.00;3.78;;;;;;;;;;5011223;28;20112;-73
2023/09/02 13:52:55;;;;;;;5.03;3.33;;;;;;;;;;5010503;28;20079;-71
2023/09/02 13:55:26;;;;;;;5.35;4.13;;;;;;;;;;5010562;28;20033;-72
2023/09/02 13:57:53;;;;;;;4.95;3.60;;;;;;;;;;5021605;28;20494;-71
2023/09/02 14:00:38;;;;;;;4.97;3.65;;;;;;;;;;5002978;28;20097;-72
2023/09/02 14:03:15;;;;;;;5.40;3.40;;;;;;;;;;5002987;28;20381;-71
2023/09/02 14:05:41;;;;;;;4.65;3.13;;;;;;;;;;5004675;28;20034;-72
2023/09/02 14:08:06;;;;;;;5.97;3.45;;;;;;;;;;5011749;28;20414;-70
2023/09/02 14:10:32;;;;;;;4.57;3.33;;;;;;;;;;5012096;28;20038;-72
2023/09/02 14:13:05;;;;;;;5.20;3.55;;;;;;;;;;5012039;28;20045;-72
2023/09/02 14:15:31;;;;;;;4.85;3.58;;;;;;;;;;5011730;28;20407;-72
2023/09/02 14:17:57;;;;;;;4.55;3.60;;;;;;;;;;5011330;28;20022;-70
2023/09/02 14:20:23;;;;;;;4.53;3.20;;;;;;;;;;5012162;28;20104;-71
2023/09/02 14:22:48;;;;;;;4.82;3.40;;;;;;;;;;5012027;28;20022;-72
2023/09/02 14:25:14;;;;;;;4.57;3.22;;;;;;;;;;5009874;28;20085;-71
2023/09/02 14:27:40;;;;;;;6.82;3.80;;;;;;;;;;4999891;28;20126;-72
2023/09/02 14:30:06;;;;;;;4.78;3.42;;;;;;;;;;4991539;28;20030;-71
2023/09/02 14:32:32;;;;;;;4.65;3.40;;;;;;;;;;4991874;28;20030;-70
2023/09/02 14:34:58;;;;;;;4.32;3.30;;;;;;;;;;4992121;28;20080;-71
2023/09/02 14:37:26;;;;;;;4.47;3.30;;;;;;;;;;4991659;28;20112;-70
2023/09/02 14:39:51;;;;;;;5.50;3.75;;;;;;;;;;4992140;28;20034;-72
2023/09/02 14:42:17;;;;;;;7.18;3.53;;;;;;;;;;4990264;28;20029;-71
2023/09/02 14:44:43;;;;;;;4.57;3.00;;;;;;;;;;4993807;28;20489;-70